sensor_id;sensor_type;location;lat;lon;timestamp;pressure;altitude;pressure_sealevel;temperature;humidity
4167;BME280;2097;51.104;7.150;2023-03-01T00:00:54;100103.13;;;-2.74;77.76
4167;BME280;2097;51.104;7.150;2023-03-01T00:03:21;100006.50;;;-3.36;77.87
4167;BME280;2097;51.104;7.150;2023-03-01T00:05:47;100108.91;;;-2.82;78.02
4167;BME280;2097;51.104;7.150;2023-03-01T00:08:16;100101.25;;;-2.85;78.06
4167;BME280;2097;51.104;7.150;2023-03-01T00:10:42;100096.97;;;-2.88;78.08
4167;BME280;2097;51.104;7.150;2023-03-01T00:13:09;100105.47;;;-2.86;78.23
4167;BME280;2097;51.104;7.150;2023-03-01T00:15:38;100009.91;;;-3.36;78.61
4167;BME280;2097;51.104;7.150;2023-03-01T00:18:06;100091.94;;;-2.85;78.28
4167;BME280;2097;51.104;7.150;2023-03-01T00:20:33;100091.09;;;-2.84;78.29
4167;BME280;2097;51.104;7.150;2023-03-01T00:23:01;100092.75;;;-2.86;78.26
4167;BME280;2097;51.104;7.150;2023-03-01T00:25:29;100099.56;;;-2.85;78.00
4167;BME280;2097;51.104;7.150;2023-03-01T00:27:56;100088.56;;;-2.84;78.38
4167;BME280;2097;51.104;7.150;2023-03-01T00:30:23;99945.84;;;-3.74;78.03
4167;BME280;2097;51.104;7.150;2023-03-01T00:32:50;99951.91;;;-3.63;78.45
4167;BME280;2097;51.104;7.150;2023-03-01T00:35:16;100092.88;;;-2.80;78.14
4167;BME280;2097;51.104;7.150;2023-03-01T00:37:43;100093.69;;;-2.81;78.06
4167;BME280;2097;51.104;7.150;2023-03-01T00:40:11;100083.53;;;-2.81;78.21
4167;BME280;2097;51.104;7.150;2023-03-01T00:42:39;99990.56;;;-3.28;78.09
4167;BME280;2097;51.104;7.150;2023-03-01T00:45:07;100073.56;;;-2.69;77.89
4167;BME280;2097;51.104;7.150;2023-03-01T00:47:34;100069.38;;;-2.67;78.08
4167;BME280;2097;51.104;7.150;2023-03-01T00:50:01;100079.50;;;-2.68;77.92
4167;BME280;2097;51.104;7.150;2023-03-01T00:52:28;100070.13;;;-2.74;77.91
4167;BME280;2097;51.104;7.150;2023-03-01T00:54:54;100072.59;;;-2.77;78.28
4167;BME280;2097;51.104;7.150;2023-03-01T00:57:23;99712.50;;;-4.88;78.17
4167;BME280;2097;51.104;7.150;2023-03-01T00:59:51;100066.69;;;-2.76;78.47
4167;BME280;2097;51.104;7.150;2023-03-01T01:02:19;100002.66;;;-3.13;78.24
4167;BME280;2097;51.104;7.150;2023-03-01T01:04:46;100036.66;;;-3.02;78.77
4167;BME280;2097;51.104;7.150;2023-03-01T01:07:13;100067.41;;;-2.84;78.39
4167;BME280;2097;51.104;7.150;2023-03-01T01:09:40;100064.84;;;-2.86;78.60
4167;BME280;2097;51.104;7.150;2023-03-01T01:12:07;99992.25;;;-3.30;78.69
4167;BME280;2097;51.104;7.150;2023-03-01T01:14:35;99975.78;;;-3.52;78.97
4167;BME280;2097;51.104;7.150;2023-03-01T01:17:03;100054.56;;;-2.93;79.04
4167;BME280;2097;51.104;7.150;2023-03-01T01:19:31;100047.78;;;-2.94;78.85
4167;BME280;2097;51.104;7.150;2023-03-01T01:21:57;99975.22;;;-3.37;79.08
4167;BME280;2097;51.104;7.150;2023-03-01T01:24:24;99991.38;;;-3.32;79.09
4167;BME280;2097;51.104;7.150;2023-03-01T01:26:51;100004.16;;;-3.24;78.98
4167;BME280;2097;51.104;7.150;2023-03-01T01:29:18;100037.47;;;-3.05;79.28
4167;BME280;2097;51.104;7.150;2023-03-01T01:31:45;100029.00;;;-3.05;79.57
4167;BME280;2097;51.104;7.150;2023-03-01T01:34:15;100023.91;;;-3.05;79.47
4167;BME280;2097;51.104;7.150;2023-03-01T01:36:43;99987.19;;;-3.27;79.17
4167;BME280;2097;51.104;7.150;2023-03-01T01:39:10;100017.91;;;-3.12;79.48
4167;BME280;2097;51.104;7.150;2023-03-01T01:41:40;99970.00;;;-3.45;79.28
4167;BME280;2097;51.104;7.150;2023-03-01T01:44:14;100013.59;;;-3.16;79.51
4167;BME280;2097;51.104;7.150;2023-03-01T01:46:43;100011.88;;;-3.17;79.52
4167;BME280;2097;51.104;7.150;2023-03-01T01:49:22;100016.97;;;-3.17;79.75
4167;BME280;2097;51.104;7.150;2023-03-01T01:51:57;100009.41;;;-3.15;79.67
4167;BME280;2097;51.104;7.150;2023-03-01T01:54:30;99950.41;;;-3.52;79.56
4167;BME280;2097;51.104;7.150;2023-03-01T01:57:03;99992.41;;;-3.18;79.65
4167;BME280;2097;51.104;7.150;2023-03-01T01:59:34;100000.03;;;-3.18;79.43
4167;BME280;2097;51.104;7.150;2023-03-01T02:02:03;99989.00;;;-3.20;79.75
4167;BME280;2097;51.104;7.150;2023-03-01T02:04:32;99992.34;;;-3.22;79.70
4167;BME280;2097;51.104;7.150;2023-03-01T02:07:02;99991.47;;;-3.24;79.84
4167;BME280;2097;51.104;7.150;2023-03-01T02:09:30;99988.91;;;-3.26;79.70
4167;BME280;2097;51.104;7.150;2023-03-01T02:11:58;100002.47;;;-3.25;80.25
4167;BME280;2097;51.104;7.150;2023-03-01T02:14:25;99993.09;;;-3.28;79.71
4167;BME280;2097;51.104;7.150;2023-03-01T02:16:53;100001.50;;;-3.32;79.61
4167;BME280;2097;51.104;7.150;2023-03-01T02:19:29;99989.63;;;-3.34;80.10
4167;BME280;2097;51.104;7.150;2023-03-01T02:22:05;99655.06;;;-5.40;79.75
4167;BME280;2097;51.104;7.150;2023-03-01T02:24:44;99992.88;;;-3.41;80.02
4167;BME280;2097;51.104;7.150;2023-03-01T02:27:19;100002.13;;;-3.43;80.20
4167;BME280;2097;51.104;7.150;2023-03-01T02:29:51;99999.59;;;-3.46;80.23
4167;BME280;2097;51.104;7.150;2023-03-01T02:32:19;99924.41;;;-3.91;80.09
4167;BME280;2097;51.104;7.150;2023-03-01T02:34:51;99991.00;;;-3.52;80.40
4167;BME280;2097;51.104;7.150;2023-03-01T02:37:18;99998.59;;;-3.54;80.47
4167;BME280;2097;51.104;7.150;2023-03-01T02:39:53;99872.25;;;-4.28;80.36
4167;BME280;2097;51.104;7.150;2023-03-01T02:42:31;99903.78;;;-4.12;80.57
4167;BME280;2097;51.104;7.150;2023-03-01T02:45:01;99993.47;;;-3.55;80.59
4167;BME280;2097;51.104;7.150;2023-03-01T02:47:28;99985.00;;;-3.57;80.44
4167;BME280;2097;51.104;7.150;2023-03-01T02:49:54;99840.75;;;-4.43;80.39
4167;BME280;2097;51.104;7.150;2023-03-01T02:52:28;99982.44;;;-3.59;80.75
4167;BME280;2097;51.104;7.150;2023-03-01T02:55:01;99976.50;;;-3.59;80.52
4167;BME280;2097;51.104;7.150;2023-03-01T02:57:31;99941.53;;;-3.78;80.42
4167;BME280;2097;51.104;7.150;2023-03-01T03:00:03;99907.38;;;-3.98;80.81
4167;BME280;2097;51.104;7.150;2023-03-01T03:02:32;99970.66;;;-3.55;80.63
4167;BME280;2097;51.104;7.150;2023-03-01T03:05:08;99933.94;;;-3.78;80.85
4167;BME280;2097;51.104;7.150;2023-03-01T03:07:38;99941.59;;;-3.75;80.12
4167;BME280;2097;51.104;7.150;2023-03-01T03:10:08;99968.94;;;-3.56;80.74
4167;BME280;2097;51.104;7.150;2023-03-01T03:12:36;99957.91;;;-3.58;80.85
4167;BME280;2097;51.104;7.150;2023-03-01T03:15:07;99962.13;;;-3.60;80.87
4167;BME280;2097;51.104;7.150;2023-03-01T03:17:35;99933.88;;;-3.83;80.57
4167;BME280;2097;51.104;7.150;2023-03-01T03:20:03;99969.66;;;-3.65;80.72
4167;BME280;2097;51.104;7.150;2023-03-01T03:22:31;99919.38;;;-3.88;80.59
4167;BME280;2097;51.104;7.150;2023-03-01T03:24:59;99809.13;;;-4.64;80.62
4167;BME280;2097;51.104;7.150;2023-03-01T03:27:27;99958.47;;;-3.77;80.87
4167;BME280;2097;51.104;7.150;2023-03-01T03:29:54;99953.28;;;-3.82;81.13
4167;BME280;2097;51.104;7.150;2023-03-01T03:32:22;99919.09;;;-4.05;81.10
4167;BME280;2097;51.104;7.150;2023-03-01T03:34:49;99954.88;;;-3.88;81.28
4167;BME280;2097;51.104;7.150;2023-03-01T03:37:15;99952.28;;;-3.91;81.50
4167;BME280;2097;51.104;7.150;2023-03-01T03:39:56;99958.19;;;-3.92;81.66
4167;BME280;2097;51.104;7.150;2023-03-01T03:42:23;99959.88;;;-3.93;81.41
4167;BME280;2097;51.104;7.150;2023-03-01T03:44:50;99957.28;;;-3.96;81.30
4167;BME280;2097;51.104;7.150;2023-03-01T03:47:17;99888.81;;;-4.45;81.48
4167;BME280;2097;51.104;7.150;2023-03-01T03:49:45;99911.91;;;-4.28;81.56
4167;BME280;2097;51.104;7.150;2023-03-01T03:52:12;99939.06;;;-4.21;81.69
4167;BME280;2097;51.104;7.150;2023-03-01T03:54:39;99632.97;;;-5.94;81.72
4167;BME280;2097;51.104;7.150;2023-03-01T03:57:06;99852.16;;;-4.63;81.71
4167;BME280;2097;51.104;7.150;2023-03-01T03:59:33;99942.84;;;-3.98;81.81
4167;BME280;2097;51.104;7.150;2023-03-01T04:02:00;99933.53;;;-3.99;81.65
4167;BME280;2097;51.104;7.150;2023-03-01T04:04:27;99937.78;;;-3.98;81.64
4167;BME280;2097;51.104;7.150;2023-03-01T04:06:55;99861.06;;;-4.40;81.78
4167;BME280;2097;51.104;7.150;2023-03-01T04:09:22;99931.91;;;-3.97;81.68
4167;BME280;2097;51.104;7.150;2023-03-01T04:11:48;99867.91;;;-4.33;81.49
4167;BME280;2097;51.104;7.150;2023-03-01T04:14:15;99929.41;;;-3.96;81.89
4167;BME280;2097;51.104;7.150;2023-03-01T04:16:42;99929.47;;;-3.91;81.84
4167;BME280;2097;51.104;7.150;2023-03-01T04:19:09;99913.31;;;-3.96;81.59
4167;BME280;2097;51.104;7.150;2023-03-01T04:21:36;99922.75;;;-3.89;81.51
4167;BME280;2097;51.104;7.150;2023-03-01T04:24:05;99922.75;;;-3.89;81.87
4167;BME280;2097;51.104;7.150;2023-03-01T04:26:32;99923.63;;;-3.89;81.36
4167;BME280;2097;51.104;7.150;2023-03-01T04:28:58;99927.88;;;-3.86;81.77
4167;BME280;2097;51.104;7.150;2023-03-01T04:31:25;99929.59;;;-3.85;81.85
4167;BME280;2097;51.104;7.150;2023-03-01T04:33:53;99926.16;;;-3.89;81.95
4167;BME280;2097;51.104;7.150;2023-03-01T04:36:22;99854.47;;;-4.31;82.06
4167;BME280;2097;51.104;7.150;2023-03-01T04:38:50;99925.22;;;-3.92;81.76
4167;BME280;2097;51.104;7.150;2023-03-01T04:41:20;99911.66;;;-3.96;82.02
4167;BME280;2097;51.104;7.150;2023-03-01T04:43:48;99914.16;;;-3.97;81.97
4167;BME280;2097;51.104;7.150;2023-03-01T04:46:17;99921.81;;;-3.96;82.17
4167;BME280;2097;51.104;7.150;2023-03-01T04:48:45;99918.41;;;-3.96;81.96
4167;BME280;2097;51.104;7.150;2023-03-01T04:51:12;99913.31;;;-3.96;82.14
4167;BME280;2097;51.104;7.150;2023-03-01T04:53:40;99917.50;;;-3.98;82.23
4167;BME280;2097;51.104;7.150;2023-03-01T04:56:07;99919.16;;;-4.00;82.13
4167;BME280;2097;51.104;7.150;2023-03-01T04:58:36;99914.06;;;-4.03;82.25
4167;BME280;2097;51.104;7.150;2023-03-01T05:01:08;99807.34;;;-4.68;82.36
4167;BME280;2097;51.104;7.150;2023-03-01T05:03:41;99912.25;;;-4.09;82.88
4167;BME280;2097;51.104;7.150;2023-03-01T05:06:08;99908.72;;;-4.18;82.46
4167;BME280;2097;51.104;7.150;2023-03-01T05:08:36;99854.22;;;-4.44;82.44
4167;BME280;2097;51.104;7.150;2023-03-01T05:11:03;99918.16;;;-4.11;82.99
4167;BME280;2097;51.104;7.150;2023-03-01T05:13:30;99837.16;;;-4.54;82.57
4167;BME280;2097;51.104;7.150;2023-03-01T05:16:00;99902.00;;;-4.15;82.84
4167;BME280;2097;51.104;7.150;2023-03-01T05:18:28;99913.03;;;-4.13;82.72
4167;BME280;2097;51.104;7.150;2023-03-01T05:21:02;99913.84;;;-4.15;82.75
4167;BME280;2097;51.104;7.150;2023-03-01T05:23:30;99916.38;;;-4.15;83.05
4167;BME280;2097;51.104;7.150;2023-03-01T05:25:57;99853.22;;;-4.52;82.49
4167;BME280;2097;51.104;7.150;2023-03-01T05:28:25;99912.19;;;-4.13;82.98
4167;BME280;2097;51.104;7.150;2023-03-01T05:30:53;99808.94;;;-4.75;82.68
4167;BME280;2097;51.104;7.150;2023-03-01T05:33:21;99911.28;;;-4.17;82.96
4167;BME280;2097;51.104;7.150;2023-03-01T05:35:49;99858.22;;;-4.56;83.02
4167;BME280;2097;51.104;7.150;2023-03-01T05:38:17;99913.66;;;-4.26;82.85
4167;BME280;2097;51.104;7.150;2023-03-01T05:40:45;99912.72;;;-4.29;83.44
4167;BME280;2097;51.104;7.150;2023-03-01T05:43:14;99913.56;;;-4.30;83.29
4167;BME280;2097;51.104;7.150;2023-03-01T05:45:41;99909.31;;;-4.31;83.34
4167;BME280;2097;51.104;7.150;2023-03-01T05:48:09;99913.50;;;-4.33;83.46
4167;BME280;2097;51.104;7.150;2023-03-01T05:50:39;99915.16;;;-4.35;83.78
4167;BME280;2097;51.104;7.150;2023-03-01T05:53:09;99910.06;;;-4.38;83.77
4167;BME280;2097;51.104;7.150;2023-03-01T05:55:37;99912.53;;;-4.40;83.80
4167;BME280;2097;51.104;7.150;2023-03-01T05:58:06;99909.13;;;-4.42;83.26
4167;BME280;2097;51.104;7.150;2023-03-01T06:00:33;99898.16;;;-4.42;83.87
4167;BME280;2097;51.104;7.150;2023-03-01T06:03:01;99899.09;;;-4.36;83.43
4167;BME280;2097;51.104;7.150;2023-03-01T06:05:28;99843.63;;;-4.68;83.56
4167;BME280;2097;51.104;7.150;2023-03-01T06:07:58;99866.19;;;-4.37;83.59
4167;BME280;2097;51.104;7.150;2023-03-01T06:10:25;99889.34;;;-4.16;82.96
4167;BME280;2097;51.104;7.150;2023-03-01T06:12:53;99895.34;;;-4.11;83.19
4167;BME280;2097;51.104;7.150;2023-03-01T06:15:20;99909.78;;;-4.06;82.60
4167;BME280;2097;51.104;7.150;2023-03-01T06:17:47;99489.75;;;-6.42;82.58
4167;BME280;2097;51.104;7.150;2023-03-01T06:20:19;99894.69;;;-4.00;82.87
4167;BME280;2097;51.104;7.150;2023-03-01T06:22:47;99815.34;;;-4.46;82.81
4167;BME280;2097;51.104;7.150;2023-03-01T06:25:18;99912.63;;;-3.89;82.91
4167;BME280;2097;51.104;7.150;2023-03-01T06:27:45;99899.16;;;-3.85;83.10
4167;BME280;2097;51.104;7.150;2023-03-01T06:30:14;99903.44;;;-3.83;82.70
4167;BME280;2097;51.104;7.150;2023-03-01T06:32:41;99812.13;;;-4.36;82.70
4167;BME280;2097;51.104;7.150;2023-03-01T06:35:08;99897.56;;;-3.79;83.08
4167;BME280;2097;51.104;7.150;2023-03-01T06:37:36;99896.81;;;-3.75;83.16
4167;BME280;2097;51.104;7.150;2023-03-01T06:40:03;99895.25;;;-3.68;83.14
4167;BME280;2097;51.104;7.150;2023-03-01T06:42:35;99894.47;;;-3.61;82.91
4167;BME280;2097;51.104;7.150;2023-03-01T06:45:05;99851.94;;;-3.80;82.77
4167;BME280;2097;51.104;7.150;2023-03-01T06:47:32;99918.28;;;-3.53;83.07
4167;BME280;2097;51.104;7.150;2023-03-01T06:49:59;99789.81;;;-4.09;83.05
4167;BME280;2097;51.104;7.150;2023-03-01T06:52:26;99887.16;;;-3.43;83.19
4167;BME280;2097;51.104;7.150;2023-03-01T06:54:53;99671.66;;;-4.59;82.42
4167;BME280;2097;51.104;7.150;2023-03-01T06:57:20;99882.34;;;-3.27;82.67
4167;BME280;2097;51.104;7.150;2023-03-01T06:59:48;99888.38;;;-3.19;82.93
4167;BME280;2097;51.104;7.150;2023-03-01T07:02:15;99880.06;;;-3.08;82.57
4167;BME280;2097;51.104;7.150;2023-03-01T07:04:42;99886.94;;;-2.99;82.10
4167;BME280;2097;51.104;7.150;2023-03-01T07:07:09;99881.97;;;-2.92;82.42
4167;BME280;2097;51.104;7.150;2023-03-01T07:09:36;99882.06;;;-2.83;82.40
4167;BME280;2097;51.104;7.150;2023-03-01T07:12:03;99877.94;;;-2.75;81.80
4167;BME280;2097;51.104;7.150;2023-03-01T07:14:30;99781.69;;;-3.27;81.89
4167;BME280;2097;51.104;7.150;2023-03-01T07:16:58;99736.75;;;-3.37;82.20
4167;BME280;2097;51.104;7.150;2023-03-01T07:19:25;99876.63;;;-2.44;81.60
4167;BME280;2097;51.104;7.150;2023-03-01T07:21:52;99828.94;;;-2.68;82.23
4167;BME280;2097;51.104;7.150;2023-03-01T07:24:20;99875.94;;;-2.30;81.60
4167;BME280;2097;51.104;7.150;2023-03-01T07:26:48;99790.78;;;-2.74;82.02
4167;BME280;2097;51.104;7.150;2023-03-01T07:29:15;99881.97;;;-2.19;81.76
4167;BME280;2097;51.104;7.150;2023-03-01T07:31:42;99879.47;;;-2.13;81.87
4167;BME280;2097;51.104;7.150;2023-03-01T07:34:11;99877.03;;;-2.06;81.85
4167;BME280;2097;51.104;7.150;2023-03-01T07:36:38;99875.38;;;-2.01;82.06
4167;BME280;2097;51.104;7.150;2023-03-01T07:39:09;99879.63;;;-1.97;82.25
4167;BME280;2097;51.104;7.150;2023-03-01T07:41:36;99754.50;;;-2.64;81.40
4167;BME280;2097;51.104;7.150;2023-03-01T07:44:03;99883.13;;;-1.86;81.67
4167;BME280;2097;51.104;7.150;2023-03-01T07:46:30;99834.59;;;-2.08;81.94
4167;BME280;2097;51.104;7.150;2023-03-01T07:48:57;99884.09;;;-1.70;81.42
4167;BME280;2097;51.104;7.150;2023-03-01T07:51:25;99887.59;;;-1.58;81.92
4167;BME280;2097;51.104;7.150;2023-03-01T07:53:52;99884.25;;;-1.51;81.80
4167;BME280;2097;51.104;7.150;2023-03-01T07:56:19;99871.56;;;-1.49;82.20
4167;BME280;2097;51.104;7.150;2023-03-01T07:58:47;99881.84;;;-1.33;81.75
4167;BME280;2097;51.104;7.150;2023-03-01T08:01:16;99887.84;;;-1.23;81.28
4167;BME280;2097;51.104;7.150;2023-03-01T08:03:44;99880.28;;;-1.14;81.50
4167;BME280;2097;51.104;7.150;2023-03-01T08:06:11;99678.56;;;-2.27;81.13
4167;BME280;2097;51.104;7.150;2023-03-01T08:08:40;99873.53;;;-1.02;81.73
4167;BME280;2097;51.104;7.150;2023-03-01T08:11:10;99882.06;;;-0.93;81.32
4167;BME280;2097;51.104;7.150;2023-03-01T08:13:37;99789.34;;;-1.38;81.54
4167;BME280;2097;51.104;7.150;2023-03-01T08:16:06;99874.53;;;-0.78;81.00
4167;BME280;2097;51.104;7.150;2023-03-01T08:18:33;99871.13;;;-0.71;80.69
4167;BME280;2097;51.104;7.150;2023-03-01T08:21:03;99870.31;;;-0.64;80.98
4167;BME280;2097;51.104;7.150;2023-03-01T08:23:30;99589.66;;;-2.25;80.62
4167;BME280;2097;51.104;7.150;2023-03-01T08:26:05;99805.63;;;-0.99;80.69
4167;BME280;2097;51.104;7.150;2023-03-01T08:28:33;99812.53;;;-0.77;80.94
4167;BME280;2097;51.104;7.150;2023-03-01T08:31:01;99875.50;;;-0.31;81.24
4167;BME280;2097;51.104;7.150;2023-03-01T08:33:28;99736.88;;;-1.02;80.56
4167;BME280;2097;51.104;7.150;2023-03-01T08:36:03;99739.47;;;-0.84;80.23
4167;BME280;2097;51.104;7.150;2023-03-01T08:38:32;99867.06;;;0.03;80.02
4167;BME280;2097;51.104;7.150;2023-03-01T08:41:00;99863.69;;;0.13;79.83
4167;BME280;2097;51.104;7.150;2023-03-01T08:43:28;99873.88;;;0.20;79.87
4167;BME280;2097;51.104;7.150;2023-03-01T08:45:55;99874.75;;;0.27;79.83
4167;BME280;2097;51.104;7.150;2023-03-01T08:48:22;99867.94;;;0.36;80.20
4167;BME280;2097;51.104;7.150;2023-03-01T08:50:49;99816.91;;;0.11;79.96
4167;BME280;2097;51.104;7.150;2023-03-01T08:53:16;99863.69;;;0.49;79.44
4167;BME280;2097;51.104;7.150;2023-03-01T08:55:43;99869.63;;;0.55;79.08
4167;BME280;2097;51.104;7.150;2023-03-01T08:58:09;99868.78;;;0.61;79.06
4167;BME280;2097;51.104;7.150;2023-03-01T09:00:38;99831.38;;;0.30;79.38
4167;BME280;2097;51.104;7.150;2023-03-01T09:03:05;99864.50;;;0.75;79.34
4167;BME280;2097;51.104;7.150;2023-03-01T09:05:33;99862.78;;;0.83;79.32
4167;BME280;2097;51.104;7.150;2023-03-01T09:08:01;99731.03;;;0.14;78.66
4167;BME280;2097;51.104;7.150;2023-03-01T09:10:28;99749.72;;;0.27;79.23
4167;BME280;2097;51.104;7.150;2023-03-01T09:12:55;99803.25;;;0.69;78.34
4167;BME280;2097;51.104;7.150;2023-03-01T09:15:21;99860.97;;;1.14;78.82
4167;BME280;2097;51.104;7.150;2023-03-01T09:17:50;99858.41;;;1.20;77.87
4167;BME280;2097;51.104;7.150;2023-03-01T09:20:17;99809.13;;;0.89;78.36
4167;BME280;2097;51.104;7.150;2023-03-01T09:22:44;99849.84;;;1.30;78.65
4167;BME280;2097;51.104;7.150;2023-03-01T09:25:11;99843.03;;;1.35;78.33
4167;BME280;2097;51.104;7.150;2023-03-01T09:27:37;99839.59;;;1.38;77.85
4167;BME280;2097;51.104;7.150;2023-03-01T09:30:05;99721.50;;;0.67;78.09
4167;BME280;2097;51.104;7.150;2023-03-01T09:32:32;99853.22;;;1.41;78.11
4167;BME280;2097;51.104;7.150;2023-03-01T09:35:00;99848.06;;;1.47;77.56
4167;BME280;2097;51.104;7.150;2023-03-01T09:37:30;99846.34;;;1.49;77.45
4167;BME280;2097;51.104;7.150;2023-03-01T09:39:57;99836.09;;;1.55;77.37
4167;BME280;2097;51.104;7.150;2023-03-01T09:42:24;99825.00;;;1.61;77.41
4167;BME280;2097;51.104;7.150;2023-03-01T09:44:53;99693.31;;;0.87;77.51
4167;BME280;2097;51.104;7.150;2023-03-01T09:47:24;99751.06;;;1.25;77.13
4167;BME280;2097;51.104;7.150;2023-03-01T09:50:00;99835.91;;;1.82;77.42
4167;BME280;2097;51.104;7.150;2023-03-01T09:52:34;99823.94;;;1.87;76.99
4167;BME280;2097;51.104;7.150;2023-03-01T09:55:08;99797.63;;;1.69;76.84
4167;BME280;2097;51.104;7.150;2023-03-01T09:57:40;99801.91;;;1.71;76.66
4167;BME280;2097;51.104;7.150;2023-03-01T10:00:30;99835.00;;;1.95;76.92
4167;BME280;2097;51.104;7.150;2023-03-01T10:03:06;99834.13;;;1.99;76.81
4167;BME280;2097;51.104;7.150;2023-03-01T10:05:48;99834.06;;;2.05;76.50
4167;BME280;2097;51.104;7.150;2023-03-01T10:08:27;99838.28;;;2.14;76.35
4167;BME280;2097;51.104;7.150;2023-03-01T10:10:57;99817.78;;;2.15;75.61
4167;BME280;2097;51.104;7.150;2023-03-01T10:13:30;99765.97;;;1.83;75.90
4167;BME280;2097;51.104;7.150;2023-03-01T10:16:04;99737.09;;;1.71;75.94
4167;BME280;2097;51.104;7.150;2023-03-01T10:18:33;99528.34;;;0.59;75.92
4167;BME280;2097;51.104;7.150;2023-03-01T10:21:13;99740.41;;;1.83;75.48
4167;BME280;2097;51.104;7.150;2023-03-01T10:23:40;99825.22;;;2.42;75.52
4167;BME280;2097;51.104;7.150;2023-03-01T10:26:15;99817.50;;;2.46;75.60
4167;BME280;2097;51.104;7.150;2023-03-01T10:28:52;99819.94;;;2.57;75.01
4167;BME280;2097;51.104;7.150;2023-03-01T10:31:22;99811.34;;;2.64;74.93
4167;BME280;2097;51.104;7.150;2023-03-01T10:33:53;99796.75;;;2.72;75.10
4167;BME280;2097;51.104;7.150;2023-03-01T10:36:22;99800.88;;;2.85;74.59
4167;BME280;2097;51.104;7.150;2023-03-01T10:38:50;99794.81;;;2.93;74.22
4167;BME280;2097;51.104;7.150;2023-03-01T10:41:19;99793.03;;;2.98;73.85
4167;BME280;2097;51.104;7.150;2023-03-01T10:43:50;99792.13;;;3.04;74.14
4167;BME280;2097;51.104;7.150;2023-03-01T10:46:25;99658.94;;;2.28;73.93
4167;BME280;2097;51.104;7.150;2023-03-01T10:49:14;99782.59;;;3.13;73.53
4167;BME280;2097;51.104;7.150;2023-03-01T10:51:44;99686.59;;;2.69;73.05
4167;BME280;2097;51.104;7.150;2023-03-01T10:54:20;99775.66;;;3.23;73.46
4167;BME280;2097;51.104;7.150;2023-03-01T10:56:49;99764.50;;;3.27;73.45
4167;BME280;2097;51.104;7.150;2023-03-01T10:59:26;99762.63;;;3.36;73.86
4167;BME280;2097;51.104;7.150;2023-03-01T11:02:18;99761.69;;;3.43;73.24
4167;BME280;2097;51.104;7.150;2023-03-01T11:04:57;99640.38;;;2.76;72.75
4167;BME280;2097;51.104;7.150;2023-03-01T11:07:26;99764.88;;;3.57;72.56
4167;BME280;2097;51.104;7.150;2023-03-01T11:09:53;99763.16;;;3.60;73.00
4167;BME280;2097;51.104;7.150;2023-03-01T11:12:21;99749.41;;;3.63;72.67
4167;BME280;2097;51.104;7.150;2023-03-01T11:14:50;99739.94;;;3.66;72.57
4167;BME280;2097;51.104;7.150;2023-03-01T11:17:21;99738.06;;;3.77;72.53
4167;BME280;2097;51.104;7.150;2023-03-01T11:20:00;99742.16;;;3.89;71.79
4167;BME280;2097;51.104;7.150;2023-03-01T11:22:30;99742.06;;;3.95;72.47
4167;BME280;2097;51.104;7.150;2023-03-01T11:24:59;99743.56;;;4.06;71.98
4167;BME280;2097;51.104;7.150;2023-03-01T11:27:28;99733.16;;;4.15;71.59
4167;BME280;2097;51.104;7.150;2023-03-01T11:30:00;99610.34;;;3.41;71.54
4167;BME280;2097;51.104;7.150;2023-03-01T11:32:34;99656.13;;;3.65;71.50
4167;BME280;2097;51.104;7.150;2023-03-01T11:35:10;99735.47;;;4.29;71.29
4167;BME280;2097;51.104;7.150;2023-03-01T11:37:48;99742.28;;;4.31;71.17
4167;BME280;2097;51.104;7.150;2023-03-01T11:40:24;99737.03;;;4.37;71.02
4167;BME280;2097;51.104;7.150;2023-03-01T11:43:03;99733.41;;;4.47;70.33
4167;BME280;2097;51.104;7.150;2023-03-01T11:45:42;99397.44;;;2.49;70.26
4167;BME280;2097;51.104;7.150;2023-03-01T11:48:27;99724.63;;;4.60;70.34
4167;BME280;2097;51.104;7.150;2023-03-01T11:51:04;99639.81;;;4.16;70.17
4167;BME280;2097;51.104;7.150;2023-03-01T11:53:55;99710.66;;;4.73;70.48
4167;BME280;2097;51.104;7.150;2023-03-01T11:56:31;99714.69;;;4.84;69.65
4167;BME280;2097;51.104;7.150;2023-03-01T11:59:26;99688.88;;;4.90;69.20
4167;BME280;2097;51.104;7.150;2023-03-01T12:02:17;99693.09;;;4.93;69.62
4167;BME280;2097;51.104;7.150;2023-03-01T12:05:08;99689.53;;;4.98;69.00
4167;BME280;2097;51.104;7.150;2023-03-01T12:07:46;99683.44;;;5.04;69.93
4167;BME280;2097;51.104;7.150;2023-03-01T12:10:27;99684.19;;;5.09;68.52
4167;BME280;2097;51.104;7.150;2023-03-01T12:13:09;99624.72;;;4.83;68.85
4167;BME280;2097;51.104;7.150;2023-03-01T12:15:47;99686.47;;;5.21;68.71
4167;BME280;2097;51.104;7.150;2023-03-01T12:18:30;99692.28;;;5.29;68.67
4167;BME280;2097;51.104;7.150;2023-03-01T12:21:09;99680.94;;;5.37;68.20
4167;BME280;2097;51.104;7.150;2023-03-01T12:23:56;99677.22;;;5.49;68.08
4167;BME280;2097;51.104;7.150;2023-03-01T12:26:30;99658.25;;;5.54;67.35
4167;BME280;2097;51.104;7.150;2023-03-01T12:29:24;99666.88;;;5.52;67.11
4167;BME280;2097;51.104;7.150;2023-03-01T12:32:12;99657.53;;;5.48;66.53
4167;BME280;2097;51.104;7.150;2023-03-01T12:34:56;99659.13;;;5.52;67.00
4167;BME280;2097;51.104;7.150;2023-03-01T12:37:37;99571.84;;;5.09;67.56
4167;BME280;2097;51.104;7.150;2023-03-01T12:40:20;99603.84;;;5.33;66.71
4167;BME280;2097;51.104;7.150;2023-03-01T12:42:59;99655.13;;;5.76;66.35
4167;BME280;2097;51.104;7.150;2023-03-01T12:45:39;99650.59;;;5.86;65.41
4167;BME280;2097;51.104;7.150;2023-03-01T12:48:28;99647.00;;;5.93;66.58
4167;BME280;2097;51.104;7.150;2023-03-01T12:51:00;99643.38;;;6.00;65.46
4167;BME280;2097;51.104;7.150;2023-03-01T12:53:30;99640.53;;;6.09;65.81
4167;BME280;2097;51.104;7.150;2023-03-01T12:56:00;99636.09;;;6.15;65.33
4167;BME280;2097;51.104;7.150;2023-03-01T12:58:32;99627.38;;;6.19;64.99
4167;BME280;2097;51.104;7.150;2023-03-01T13:01:14;99628.94;;;6.25;64.71
4167;BME280;2097;51.104;7.150;2023-03-01T13:03:59;99601.75;;;6.15;64.37
4167;BME280;2097;51.104;7.150;2023-03-01T13:06:34;99599.81;;;6.21;64.91
4167;BME280;2097;51.104;7.150;2023-03-01T13:09:14;99366.72;;;4.85;64.47
4167;BME280;2097;51.104;7.150;2023-03-01T13:11:47;99616.16;;;6.52;64.18
4167;BME280;2097;51.104;7.150;2023-03-01T13:14:45;99541.34;;;6.23;63.75
4167;BME280;2097;51.104;7.150;2023-03-01T13:17:31;99565.75;;;6.41;63.14
4167;BME280;2097;51.104;7.150;2023-03-01T13:19:58;99410.56;;;5.45;63.01
4167;BME280;2097;51.104;7.150;2023-03-01T13:22:29;99605.28;;;6.70;63.42
4167;BME280;2097;51.104;7.150;2023-03-01T13:25:12;99611.25;;;6.72;63.17
4167;BME280;2097;51.104;7.150;2023-03-01T13:27:39;99514.31;;;6.09;63.15
4167;BME280;2097;51.104;7.150;2023-03-01T13:30:39;99614.72;;;6.71;62.63
4167;BME280;2097;51.104;7.150;2023-03-01T13:36:46;99618.09;;;6.73;62.46
4167;BME280;2097;51.104;7.150;2023-03-01T13:39:31;99613.84;;;6.72;62.30
4167;BME280;2097;51.104;7.150;2023-03-01T13:41:59;99503.34;;;6.02;62.96
4167;BME280;2097;51.104;7.150;2023-03-01T13:44:30;99612.13;;;6.73;62.83
4167;BME280;2097;51.104;7.150;2023-03-01T13:47:06;99605.13;;;6.76;62.70